Time;durP1;ratioP1;P1;durP2;ratioP2;P2;SDS_P1;SDS_P2;PMS_P1;PMS_P2;Temp;Humidity;BMP_temperature;BMP_pressure;BME280_temperature;BME280_humidity;BME280_pressure;Samples;Min_cycle;Max_cycle;Signal;HPM_P1;HPM_P2
2022/09/21 00:02:04;;;;;;;12.35;5.60;;;;;;;10.20;100.00;102271.56;5045012;28;20036;-81
2022/09/21 00:04:33;;;;;;;9.55;4.60;;;;;;;10.30;100.00;102275.53;5038469;28;20032;-80
2022/09/21 00:06:58;;;;;;;10.80;4.53;;;;;;;10.35;100.00;102280.81;5030001;28;20029;-81
2022/09/21 00:09:26;;;;;;;14.55;4.85;;;;;;;10.28;100.00;102272.00;5065188;28;20028;-81
2022/09/21 00:11:55;;;;;;;16.52;4.85;;;;;;;9.98;100.00;102252.66;5013447;28;20035;-80
2022/09/21 00:14:30;;;;;;;12.07;4.95;;;;;;;10.17;100.00;102279.94;5057770;28;20468;-80
2022/09/21 00:17:11;;;;;;;13.70;4.93;;;;;;;10.20;100.00;102271.56;5041999;28;20178;-80
2022/09/21 00:19:37;;;;;;;22.38;5.35;;;;;;;10.20;100.00;102278.84;5040760;28;20068;-80
2022/09/21 00:22:06;;;;;;;12.35;4.78;;;;;;;10.07;100.00;102265.84;5037898;28;20454;-80
2022/09/21 00:24:40;;;;;;;14.30;5.07;;;;;;;9.99;100.00;102270.88;5018074;28;20123;-80
2022/09/21 00:27:16;;;;;;;13.10;4.97;;;;;;;9.94;100.00;102281.19;5023371;28;20557;-80
2022/09/21 00:29:41;;;;;;;11.68;5.43;;;;;;;9.99;100.00;102272.72;5074808;28;20141;-79
2022/09/21 00:32:15;;;;;;;16.50;5.10;;;;;;;10.02;100.00;102283.47;5061881;28;20033;-80
2022/09/21 00:34:41;;;;;;;9.95;4.90;;;;;;;9.96;100.00;102279.22;5043717;28;20054;-80
2022/09/21 00:37:13;;;;;;;17.10;6.33;;;;;;;9.92;100.00;102284.00;5011429;28;20125;-80
2022/09/21 00:39:44;;;;;;;18.63;6.03;;;;;;;9.86;100.00;102273.38;5048902;28;20138;-79
2022/09/21 00:42:24;;;;;;;11.48;5.45;;;;;;;9.88;100.00;102282.38;5074926;28;20132;-79
2022/09/21 00:44:50;;;;;;;10.30;5.32;;;;;;;9.97;100.00;102270.06;5044399;28;20031;-79
2022/09/21 00:47:41;;;;;;;12.82;4.63;;;;;;;9.92;100.00;102284.00;5071308;28;20108;-80
2022/09/21 00:50:14;;;;;;;15.45;5.00;;;;;;;9.77;100.00;102279.31;5078369;28;20084;-80
2022/09/21 00:52:54;;;;;;;15.43;5.07;;;;;;;9.91;100.00;102278.59;5032842;28;20480;-79
2022/09/21 00:55:41;;;;;;;11.52;5.97;;;;;;;9.88;100.00;102284.22;5058163;28;20062;-79
2022/09/21 00:58:26;;;;;;;19.45;5.28;;;;;;;9.85;100.00;102279.78;5045993;28;20462;-80
2022/09/21 01:00:54;;;;;;;18.58;5.55;;;;;;;9.77;100.00;102283.91;5074302;28;20028;-80
2022/09/21 01:03:35;;;;;;;19.13;5.63;;;;;;;9.80;100.00;102287.34;5031846;28;20399;-80
2022/09/21 01:06:07;;;;;;;12.95;5.53;;;;;;;9.77;100.00;102293.00;5043112;28;20119;-81
2022/09/21 01:08:44;;;;;;;15.02;5.43;;;;;;;9.85;100.00;102279.78;5042493;28;20056;-81
2022/09/21 01:11:13;;;;;;;10.40;5.00;;;;;;;9.82;100.00;102287.28;5060582;28;20036;-81
2022/09/21 01:14:01;;;;;;;19.73;5.40;;;;;;;9.90;100.00;102290.50;5061381;28;20107;-81
2022/09/21 01:17:13;;;;;;;9.30;5.13;;;;;;;9.76;100.00;102277.56;5072563;28;20036;-81
2022/09/21 01:20:14;;;;;;;13.55;5.28;;;;;;;9.74;100.00;102295.91;5053402;28;20408;-81
2022/09/21 01:22:59;;;;;;;9.90;5.35;;;;;;;9.60;100.00;102284.81;5062729;28;20062;-80
2022/09/21 01:25:52;;;;;;;16.73;6.65;;;;;;;9.61;100.00;102283.81;5066922;28;20036;-80
2022/09/21 01:28:36;;;;;;;14.35;5.78;;;;;;;9.52;100.00;102282.47;5074199;28;20050;-81
2022/09/21 01:31:06;;;;;;;18.65;6.35;;;;;;;9.60;100.00;102279.34;5073736;28;20368;-80
2022/09/21 01:33:38;;;;;;;15.27;6.05;;;;;;;9.67;100.00;102283.50;5060587;28;20055;-81
2022/09/21 01:36:16;;;;;;;19.55;6.28;;;;;;;9.57;100.00;102289.47;5073597;28;20029;-81
2022/09/21 01:38:59;;;;;;;17.40;6.47;;;;;;;9.41;100.00;102285.72;5059303;28;20472;-81
2022/09/21 01:41:39;;;;;;;17.20;6.85;;;;;;;9.38;100.00;102273.13;5045464;28;20040;-81
2022/09/21 01:44:10;;;;;;;17.92;6.18;;;;;;;9.52;100.00;102266.94;5069987;28;20567;-81
2022/09/21 01:46:41;;;;;;;17.08;6.28;;;;;;;9.66;100.00;102277.16;5049517;28;20169;-81
2022/09/21 01:49:15;;;;;;;19.88;7.05;;;;;;;9.57;100.00;102274.91;5075925;28;20498;-81
2022/09/21 01:51:51;;;;;;;16.77;6.30;;;;;;;9.58;100.00;102273.94;5076028;28;20137;-81
2022/09/21 01:54:21;;;;;;;18.38;6.78;;;;;;;9.55;100.00;102274.97;5062091;28;20033;-81
2022/09/21 01:57:13;;;;;;;18.30;6.07;;;;;;;9.43;100.00;102269.25;5052831;28;20867;-81
2022/09/21 01:59:51;;;;;;;15.50;6.43;;;;;;;9.41;100.00;102265.72;5060534;28;20086;-80
2022/09/21 02:02:46;;;;;;;11.82;5.68;;;;;;;9.42;100.00;102276.59;5042250;28;20457;-80
2022/09/21 02:05:19;;;;;;;14.05;6.40;;;;;;;9.37;100.00;102282.28;5048686;28;20502;-80
2022/09/21 02:07:47;;;;;;;15.05;6.15;;;;;;;9.35;100.00;102278.75;5046038;28;20066;-79
2022/09/21 02:10:28;;;;;;;14.25;5.95;;;;;;;9.26;100.00;102268.28;5058174;28;20037;-79
2022/09/21 02:13:01;;;;;;;15.65;6.25;;;;;;;9.19;100.00;102275.91;5064057;28;20075;-79
2022/09/21 02:16:06;;;;;;;15.35;6.82;;;;;;;9.06;100.00;102279.34;5076205;28;20454;-79
2022/09/21 02:18:42;;;;;;;18.20;5.85;;;;;;;8.98;100.00;102280.59;5063461;28;20491;-79
2022/09/21 02:21:22;;;;;;;12.15;5.53;;;;;;;8.87;100.00;102266.59;5071379;28;20507;-79
2022/09/21 02:24:07;;;;;;;14.88;7.00;;;;;;;8.85;100.00;102273.09;5046230;28;20028;-79
2022/09/21 02:26:58;;;;;;;17.10;7.22;;;;;;;8.88;100.00;102276.53;5069331;28;20047;-79
2022/09/21 02:29:32;;;;;;;12.00;5.63;;;;;;;8.92;100.00;102275.44;5076486;28;20060;-79
2022/09/21 02:32:24;;;;;;;16.90;6.95;;;;;;;8.92;100.00;102277.28;5036405;28;20518;-79
2022/09/21 02:35:03;;;;;;;17.48;6.55;;;;;;;8.70;100.00;102277.44;5026964;28;20056;-79
2022/09/21 02:38:05;;;;;;;17.17;6.72;;;;;;;8.67;100.00;102278.47;5050478;28;20037;-79
2022/09/21 02:40:55;;;;;;;15.93;6.45;;;;;;;8.65;100.00;102272.19;5075803;28;20510;-79
2022/09/21 02:43:45;;;;;;;16.65;6.28;;;;;;;8.62;100.00;102269.63;5059876;28;20498;-79
2022/09/21 02:46:33;;;;;;;9.93;6.20;;;;;;;8.63;100.00;102276.84;5064750;28;20039;-79
2022/09/21 02:49:12;;;;;;;21.15;7.60;;;;;;;8.56;100.00;102275.38;5061163;28;20036;-79
2022/09/21 02:51:48;;;;;;;13.85;6.75;;;;;;;8.40;100.00;102264.28;5053578;28;20029;-79
2022/09/21 02:54:25;;;;;;;11.18;6.05;;;;;;;8.53;100.00;102260.03;5060020;28;20490;-79
2022/09/21 02:57:02;;;;;;;19.90;6.90;;;;;;;8.39;100.00;102273.41;5069997;28;20606;-79
2022/09/21 02:59:35;;;;;;;26.15;7.25;;;;;;;8.45;100.00;102263.13;5048472;28;20040;-79
2022/09/21 03:02:04;;;;;;;18.75;6.47;;;;;;;8.51;100.00;102282.88;5025953;28;20399;-79
2022/09/21 03:04:35;;;;;;;25.52;7.13;;;;;;;8.55;100.00;102270.88;5043433;28;20028;-79
2022/09/21 03:07:00;;;;;;;14.80;5.95;;;;;;;8.40;100.00;102275.19;5042421;28;20032;-79
2022/09/21 03:09:26;;;;;;;14.52;6.70;;;;;;;8.26;100.00;102282.19;5025222;28;20494;-80
2022/09/21 03:11:57;;;;;;;12.82;6.40;;;;;;;8.16;100.00;102285.41;5040042;28;20033;-79
2022/09/21 03:14:26;;;;;;;16.67;6.45;;;;;;;8.00;100.00;102257.94;5084964;28;20426;-79
2022/09/21 03:16:56;;;;;;;10.43;5.80;;;;;;;8.04;100.00;102284.13;5055842;28;20037;-79
2022/09/21 03:19:24;;;;;;;17.67;5.88;;;;;;;8.05;100.00;102281.31;5061621;28;20531;-79
2022/09/21 03:21:59;;;;;;;20.73;6.90;;;;;;;8.19;100.00;102293.44;5062491;28;20044;-78
2022/09/21 03:27:19;;;;;;;14.25;5.68;;;;;;;7.88;100.00;102284.78;5060455;28;20479;-79
2022/09/21 03:29:47;;;;;;;11.77;5.45;;;;;;;7.85;100.00;102287.66;5052382;28;20052;-79
2022/09/21 03:32:15;;;;;;;8.40;5.53;;;;;;;7.91;100.00;102283.78;5058802;28;20115;-80
2022/09/21 03:34:41;;;;;;;14.23;5.78;;;;;;;7.77;100.00;102284.38;5056132;28;20060;-79
2022/09/21 03:37:10;;;;;;;12.80;6.50;;;;;;;7.89;100.00;102292.03;5071218;28;20044;-79
2022/09/21 03:39:55;;;;;;;14.85;5.57;;;;;;;7.88;100.00;102292.97;5047625;28;20106;-79
2022/09/21 03:42:30;;;;;;;11.13;5.85;;;;;;;7.97;100.00;102297.16;5066597;28;20518;-79
2022/09/21 03:44:56;;;;;;;13.50;6.28;;;;;;;7.97;100.00;102296.25;5041988;28;20438;-79
2022/09/21 03:47:28;;;;;;;12.60;6.13;;;;;;;7.96;100.00;102299.94;5058463;28;20035;-80
2022/09/21 03:49:55;;;;;;;15.57;6.20;;;;;;;7.84;100.00;102302.25;5066915;28;20028;-79
2022/09/21 03:52:22;;;;;;;12.27;5.90;;;;;;;7.69;100.00;102297.47;5040917;28;20040;-79
2022/09/21 03:54:59;;;;;;;12.40;6.03;;;;;;;7.63;100.00;102301.38;5023115;28;20033;-79
2022/09/21 03:57:34;;;;;;;13.35;6.47;;;;;;;7.64;100.00;102299.50;5062330;28;20024;-79
2022/09/21 04:00:02;;;;;;;17.05;6.60;;;;;;;7.60;100.00;102296.03;5046949;28;20139;-79
2022/09/21 04:02:32;;;;;;;13.35;6.60;;;;;;;7.66;100.00;102303.09;5066811;28;20116;-79
2022/09/21 04:04:59;;;;;;;15.25;6.90;;;;;;;7.53;100.00;102298.16;5038159;28;20028;-79
2022/09/21 04:07:35;;;;;;;18.50;6.82;;;;;;;7.52;100.00;102299.09;5074218;28;20471;-79
2022/09/21 04:10:06;;;;;;;14.48;6.75;;;;;;;7.71;100.00;102306.50;5057528;28;20838;-79
2022/09/21 04:12:35;;;;;;;16.58;6.38;;;;;;;7.61;100.00;102295.09;5054648;28;20068;-79
2022/09/21 04:15:06;;;;;;;11.98;5.88;;;;;;;7.52;100.00;102298.22;5057786;28;20033;-79
2022/09/21 04:17:39;;;;;;;12.57;6.38;;;;;;;7.47;100.00;102298.41;5061565;28;20036;-79
2022/09/21 04:20:08;;;;;;;15.32;6.30;;;;;;;7.46;100.00;102302.09;5056673;28;20462;-79
2022/09/21 04:22:46;;;;;;;14.00;6.80;;;;;;;7.55;100.00;102303.53;5069695;28;20044;-79
2022/09/21 04:25:15;;;;;;;14.68;6.82;;;;;;;7.45;100.00;102304.88;5037544;28;20057;-80
2022/09/21 04:27:44;;;;;;;15.55;7.18;;;;;;;7.47;100.00;102303.84;5030475;28;20063;-78
2022/09/21 04:30:13;;;;;;;14.52;6.63;;;;;;;7.56;100.00;102305.31;5045724;28;20041;-78
2022/09/21 04:32:41;;;;;;;23.95;7.05;;;;;;;7.49;100.00;102306.50;5054124;28;20096;-80
2022/09/21 04:35:09;;;;;;;15.93;7.53;;;;;;;7.49;100.00;102310.16;5038419;28;20498;-79
2022/09/21 04:37:40;;;;;;;10.63;6.03;;;;;;;7.47;100.00;102314.75;5072291;28;20032;-79
2022/09/21 04:40:07;;;;;;;11.48;6.32;;;;;;;7.45;100.00;102304.88;5073093;28;20060;-79
2022/09/21 04:42:37;;;;;;;12.43;7.45;;;;;;;7.35;100.00;102309.84;5024802;28;20432;-79
2022/09/21 04:45:04;;;;;;;15.35;6.75;;;;;;;7.41;100.00;102314.13;5023951;28;20040;-78
2022/09/21 04:47:42;;;;;;;15.60;6.60;;;;;;;7.58;100.00;102311.59;5073917;28;20119;-78
2022/09/21 04:50:09;;;;;;;12.90;5.65;;;;;;;7.53;100.00;102322.69;5022716;28;20033;-78
2022/09/21 04:52:41;;;;;;;16.42;6.95;;;;;;;7.50;100.00;102320.06;5070475;28;20063;-79
2022/09/21 04:55:19;;;;;;;6.90;4.65;;;;;;;7.39;100.00;102322.38;5027487;28;20476;-79
2022/09/21 04:57:45;;;;;;;7.85;4.43;;;;;;;7.30;100.00;102325.50;5067561;28;20032;-78
2022/09/21 05:00:11;;;;;;;11.88;5.00;;;;;;;7.30;100.00;102325.50;5040461;28;20078;-79
2022/09/21 05:02:46;;;;;;;9.73;5.20;;;;;;;7.26;100.00;102321.13;5044614;28;20033;-79
2022/09/21 05:05:16;;;;;;;8.20;5.22;;;;;;;7.20;100.00;102324.09;5038853;28;20212;-80
2022/09/21 05:07:51;;;;;;;12.50;5.82;;;;;;;7.27;100.00;102317.44;5052101;28;20017;-78
2022/09/21 05:10:18;;;;;;;12.73;5.97;;;;;;;7.16;100.00;102331.50;5033979;28;20025;-78
2022/09/21 05:12:45;;;;;;;17.00;5.68;;;;;;;6.97;100.00;102301.44;5042532;28;20055;-78
2022/09/21 05:15:14;;;;;;;15.88;6.55;;;;;;;7.01;100.00;102326.69;5058269;28;20064;-78
2022/09/21 05:17:42;;;;;;;8.68;5.38;;;;;;;6.94;100.00;102326.06;5024832;28;20037;-79
2022/09/21 05:20:09;;;;;;;11.05;5.13;;;;;;;6.84;100.00;102330.06;5048004;28;20398;-81
2022/09/21 05:22:35;;;;;;;7.63;4.40;;;;;;;6.73;100.00;102325.06;5059524;28;20025;-81
2022/09/21 05:25:09;;;;;;;16.15;5.80;;;;;;;6.74;100.00;102327.72;5042541;28;20495;-80
2022/09/21 05:27:38;;;;;;;10.60;5.13;;;;;;;6.83;100.00;102321.03;5054953;28;20017;-79
2022/09/21 05:30:06;;;;;;;15.65;5.57;;;;;;;6.90;100.00;102325.25;5024203;28;20033;-79
2022/09/21 05:32:51;;;;;;;12.20;5.25;;;;;;;6.96;100.00;102324.16;5048924;28;20028;-79
2022/09/21 05:35:53;;;;;;;10.43;6.63;;;;;;;6.96;100.00;102335.03;5059908;28;20037;-80
2022/09/21 05:38:21;;;;;;;9.48;5.38;;;;;;;6.89;100.00;102334.41;5054924;28;20042;-81
2022/09/21 05:40:49;;;;;;;10.88;5.10;;;;;;;6.78;100.00;102314.88;5042314;28;20551;-81
2022/09/21 05:43:17;;;;;;;5.55;4.50;;;;;;;6.88;100.00;102337.19;5041271;28;20091;-81
2022/09/21 05:46:01;;;;;;;7.45;4.20;;;;;;;6.91;100.00;102331.63;5062760;28;20063;-79
2022/09/21 05:48:46;;;;;;;18.27;6.00;;;;;;;6.80;100.00;102335.66;5059796;28;20029;-79
2022/09/21 05:51:38;;;;;;;11.00;5.38;;;;;;;6.86;100.00;102350.84;5066087;28;20057;-79
2022/09/21 05:54:18;;;;;;;10.50;5.30;;;;;;;6.94;100.00;102331.50;5076475;28;20033;-79
2022/09/21 05:57:08;;;;;;;12.35;4.70;;;;;;;7.06;100.00;102350.06;5067915;28;20511;-79
2022/09/21 05:59:53;;;;;;;11.57;4.78;;;;;;;7.07;100.00;102353.69;5072533;28;20032;-79
2022/09/21 06:02:52;;;;;;;9.35;5.45;;;;;;;6.99;100.00;102367.59;5077105;28;20025;-80
2022/09/21 06:05:20;;;;;;;9.70;5.15;;;;;;;6.92;100.00;102363.31;5044888;28;20052;-81
2022/09/21 06:08:05;;;;;;;10.48;6.40;;;;;;;7.13;100.00;102364.31;5045178;28;20033;-81
2022/09/21 06:10:35;;;;;;;13.50;6.53;;;;;;;7.32;100.00;102367.19;5059129;28;20510;-80
2022/09/21 06:13:03;;;;;;;14.02;6.07;;;;;;;7.40;100.00;102367.75;5022415;28;20040;-80
2022/09/21 06:15:37;;;;;;;25.27;7.80;;;;;;;7.52;100.00;102371.78;5056444;28;20036;-80
2022/09/21 06:18:06;;;;;;;17.83;8.23;;;;;;;7.62;100.00;102380.47;5066769;28;20033;-82
2022/09/21 06:20:33;;;;;;;24.90;8.90;;;;;;;7.76;100.00;102380.78;5048742;28;20024;-80
2022/09/21 06:23:16;;;;;;;24.23;9.35;;;;;;;7.93;100.00;102376.44;5080627;28;20036;-82
2022/09/21 06:25:51;;;;;;;18.42;9.30;;;;;;;8.01;100.00;102388.78;5014307;28;20032;-81
2022/09/21 06:28:22;;;;;;;21.50;9.90;;;;;;;8.07;100.00;102380.34;5078533;28;20024;-80
2022/09/21 06:30:52;;;;;;;24.85;10.30;;;;;;;8.04;100.00;102371.41;5049813;28;20040;-80
2022/09/21 06:33:22;;;;;;;26.25;9.35;;;;;;;8.00;100.00;102378.84;5056187;28;20420;-79
2022/09/21 06:35:58;;;;;;;20.65;9.75;;;;;;;8.03;100.00;102369.63;5050855;28;20029;-79
2022/09/21 06:38:34;;;;;;;31.77;10.30;;;;;;;7.95;100.00;102380.84;5047036;28;20036;-78
2022/09/21 06:41:03;;;;;;;24.73;9.93;;;;;;;7.97;100.00;102380.78;5077126;28;20515;-79
2022/09/21 06:43:30;;;;;;;29.23;10.70;;;;;;;8.03;100.00;102384.13;5043490;28;20461;-78
2022/09/21 06:46:03;;;;;;;22.77;10.25;;;;;;;8.06;100.00;102388.59;5056768;28;20057;-79
2022/09/21 06:48:34;;;;;;;23.10;10.27;;;;;;;8.06;100.00;102372.22;5047769;28;20052;-79
2022/09/21 06:51:04;;;;;;;28.42;11.00;;;;;;;8.18;100.00;102378.97;5046369;28;20453;-81
2022/09/21 06:53:34;;;;;;;28.60;12.70;;;;;;;8.20;100.00;102364.31;5046427;28;20467;-81
2022/09/21 06:56:06;;;;;;;38.00;11.30;;;;;;;8.56;100.00;102382.75;5047933;28;20032;-80
2022/09/21 06:58:40;;;;;;;34.15;11.45;;;;;;;8.78;100.00;102379.00;5061264;28;20032;-78
2022/09/21 07:01:10;;;;;;;24.95;11.30;;;;;;;9.12;100.00;102382.88;5038894;28;20052;-80
2022/09/21 07:03:41;;;;;;;;;;;;;;;9.27;100.00;102376.63;5045520;28;20500;-80
2022/09/21 07:06:10;;;;;;;36.50;12.52;;;;;;;9.36;100.00;102378.94;5045774;28;19913;-81
2022/09/21 07:08:38;;;;;;;30.13;11.80;;;;;;;9.62;100.00;102368.50;5045567;28;20021;-81
2022/09/21 07:11:05;;;;;;;24.05;11.38;;;;;;;9.58;100.00;102383.31;5024749;28;20393;-80
2022/09/21 07:13:31;;;;;;;27.92;12.20;;;;;;;9.68;100.00;102383.75;5024295;28;20032;-81
2022/09/21 07:15:57;;;;;;;27.70;12.90;;;;;;;9.87;100.00;102384.59;5025727;28;20542;-80
2022/09/21 07:18:30;;;;;;;20.85;13.02;;;;;;;9.94;100.00;102375.06;5025256;28;20043;-79
2022/09/21 07:21:08;;;;;;;23.45;13.95;;;;;;;10.00;100.00;102365.69;5073537;28;20028;-80
2022/09/21 07:23:42;;;;;;;30.50;14.63;;;;;;;10.07;100.00;102377.19;5032049;28;20028;-80
2022/09/21 07:26:12;;;;;;;31.02;14.20;;;;;;;10.18;100.00;102384.81;5027049;28;20032;-79
2022/09/21 07:28:43;;;;;;;44.67;14.55;;;;;;;10.18;100.00;102382.94;5062025;28;20150;-80
2022/09/21 07:31:14;;;;;;;26.48;13.95;;;;;;;10.39;100.00;102386.44;5059941;28;20024;-79
2022/09/21 07:33:47;;;;;;;32.67;14.80;;;;;;;10.42;100.00;102378.06;5056566;28;20062;-80
2022/09/21 07:36:16;;;;;;;;;;;;;;;10.63;100.00;102381.50;5050406;28;20106;-80
2022/09/21 07:38:43;;;;;;;27.83;14.45;;;;;;;10.73;100.00;102379.13;5077786;28;19995;-81
2022/09/21 07:41:13;;;;;;;36.40;14.98;;;;;;;10.90;100.00;102375.44;5045045;28;20075;-81
2022/09/21 07:43:40;;;;;;;36.72;13.50;;;;;;;11.45;100.00;102376.00;5042699;28;20033;-80
2022/09/21 07:46:11;;;;;;;37.25;12.50;;;;;;;11.72;100.00;102377.13;5042594;28;20042;-80
2022/09/21 07:48:38;;;;;;;26.67;12.95;;;;;;;11.48;100.00;102376.72;5059102;28;20025;-81
2022/09/21 07:51:09;;;;;;;21.52;12.70;;;;;;;11.69;100.00;102369.06;5077947;28;20051;-80
2022/09/21 07:53:37;;;;;;;29.98;12.15;;;;;;;12.56;100.00;102380.28;5058951;28;20029;-80
2022/09/21 07:56:07;;;;;;;28.42;11.88;;;;;;;12.48;100.00;102380.81;5058343;28;20033;-79
2022/09/21 08:01:34;;;;;;;36.67;12.77;;;;;;;12.73;100.00;102385.63;5060371;28;20067;-80
2022/09/21 08:04:05;;;;;;;26.17;12.32;;;;;;;12.98;100.00;102381.28;5058756;28;20037;-80
2022/09/21 08:06:34;;;;;;;27.00;12.98;;;;;;;12.78;100.00;102379.84;5057456;28;20036;-80
2022/09/21 08:09:07;;;;;;;24.05;11.70;;;;;;;13.48;100.00;102377.13;5056996;28;20029;-80
2022/09/21 08:11:33;;;;;;;29.40;13.18;;;;;;;13.49;100.00;102378.84;5069981;28;20487;-80
2022/09/21 08:14:01;;;;;;;24.88;10.60;;;;;;;14.23;100.00;102382.09;5043543;28;20024;-80
2022/09/21 08:16:32;;;;;;;22.50;10.93;;;;;;;14.12;100.00;102382.84;5040750;28;20029;-80
2022/09/21 08:19:01;;;;;;;27.45;10.95;;;;;;;14.55;100.00;102380.78;5039198;28;20036;-80
2022/09/21 08:21:31;;;;;;;26.35;10.23;;;;;;;14.90;100.00;102369.97;5024736;28;20469;-80
2022/09/21 08:24:03;;;;;;;;;;;;;;;15.25;100.00;102383.06;5053498;28;20044;-80
2022/09/21 08:26:32;;;;;;;27.52;8.98;;;;;;;15.55;100.00;102379.88;5039976;28;20363;-80
2022/09/21 08:29:01;;;;;;;28.40;9.60;;;;;;;15.72;100.00;102369.41;5076160;28;20024;-80
2022/09/21 08:31:29;;;;;;;24.10;8.10;;;;;;;15.71;100.00;102379.59;5076261;28;20039;-80
2022/09/21 08:34:03;;;;;;;17.42;7.88;;;;;;;16.34;100.00;102382.97;5059396;28;20056;-80
2022/09/21 08:36:28;;;;;;;24.95;7.22;;;;;;;15.74;100.00;102378.44;5040670;28;20056;-80
2022/09/21 08:39:06;;;;;;;18.90;8.13;;;;;;;15.76;100.00;102382.03;5060408;28;20096;-80
2022/09/21 08:41:49;;;;;;;19.50;8.20;;;;;;;15.62;100.00;102378.38;5060560;28;20035;-80
2022/09/21 08:44:29;;;;;;;16.15;8.18;;;;;;;15.93;100.00;102381.59;5059881;28;20109;-80
2022/09/21 08:47:10;;;;;;;22.80;7.63;;;;;;;17.35;100.00;102380.41;5059900;28;20024;-80
2022/09/21 08:49:40;;;;;;;22.20;7.38;;;;;;;17.47;100.00;102379.41;5077068;28;20067;-80
2022/09/21 08:52:15;;;;;;;22.42;7.30;;;;;;;16.53;100.00;102382.41;5056681;28;20496;-80
2022/09/21 08:54:53;;;;;;;18.42;7.68;;;;;;;16.28;100.00;102388.13;5077769;28;20047;-80
2022/09/21 08:57:28;;;;;;;25.10;7.05;;;;;;;16.55;100.00;102393.34;5061886;28;20028;-80
2022/09/21 08:59:53;;;;;;;20.42;6.63;;;;;;;16.83;100.00;102385.59;5039630;28;20032;-80
2022/09/21 09:02:39;;;;;;;13.57;6.88;;;;;;;16.82;100.00;102387.50;5043091;28;20491;-80
2022/09/21 09:05:24;;;;;;;18.45;6.55;;;;;;;17.27;100.00;102390.25;5068475;28;20033;-80
2022/09/21 09:07:58;;;;;;;15.85;7.45;;;;;;;17.47;100.00;102395.16;5060101;28;20025;-80
2022/09/21 09:10:30;;;;;;;18.13;7.78;;;;;;;18.03;100.00;102388.59;5060892;28;20037;-80
2022/09/21 09:13:15;;;;;;;18.05;7.88;;;;;;;17.73;100.00;102390.19;5060785;28;20413;-80
2022/09/21 09:16:20;;;;;;;31.85;8.50;;;;;;;17.48;100.00;102388.59;5045751;28;20823;-80
2022/09/21 09:19:05;;;;;;;19.67;7.75;;;;;;;18.23;100.00;102386.84;5029217;28;20032;-80
2022/09/21 09:21:42;;;;;;;14.43;7.03;;;;;;;18.07;100.00;102393.72;5062514;28;20422;-80
2022/09/21 09:24:30;;;;;;;15.93;6.90;;;;;;;17.75;100.00;102383.47;5080953;28;20089;-80
2022/09/21 09:27:06;;;;;;;19.10;7.90;;;;;;;17.86;100.00;102398.31;5063892;28;20028;-80
2022/09/21 09:29:44;;;;;;;23.13;6.93;;;;;;;17.81;100.00;102399.59;5063619;28;20032;-81
2022/09/21 09:32:14;;;;;;;14.95;7.10;;;;;;;17.49;100.00;102391.22;5082720;28;20029;-81
2022/09/21 09:34:52;;;;;;;19.92;7.07;;;;;;;18.10;100.00;102389.81;5081090;28;20067;-81
2022/09/21 09:37:27;;;;;;;26.67;7.07;;;;;;;18.48;100.00;102389.22;5073753;28;20024;-82
2022/09/21 09:39:57;;;;;;;15.50;6.97;;;;;;;18.43;100.00;102383.22;5059311;28;20049;-80
2022/09/21 09:42:48;;;;;;;26.13;7.20;;;;;;;17.68;100.00;102392.47;5060585;28;20032;-81
2022/09/21 09:45:20;;;;;;;15.82;6.55;;;;;;;18.09;100.00;102394.47;5043372;28;20115;-80
2022/09/21 09:48:13;;;;;;;17.45;5.45;;;;;;;18.54;100.00;102390.56;5061450;28;20021;-80
2022/09/21 09:50:41;;;;;;;14.35;5.07;;;;;;;18.26;100.00;102397.66;5057922;28;20040;-79
2022/09/21 09:53:22;;;;;;;9.05;3.58;;;;;;;18.28;100.00;102392.84;5062468;28;20602;-79
2022/09/21 09:55:55;;;;;;;10.25;3.70;;;;;;;18.57;100.00;102395.84;5062229;28;20020;-79
2022/09/21 09:58:41;;;;;;;11.85;3.85;;;;;;;18.60;100.00;102398.34;5061800;28;20078;-79
2022/09/21 10:01:07;;;;;;;6.95;3.20;;;;;;;18.42;100.00;102397.22;5042292;28;20075;-79
2022/09/21 10:03:35;;;;;;;9.48;3.40;;;;;;;18.57;100.00;102387.53;5044728;28;20467;-79
2022/09/21 10:06:00;;;;;;;12.07;1.92;;;;;;;17.81;100.00;102401.50;5067144;28;20045;-79
2022/09/21 10:08:46;;;;;;;10.15;3.83;;;;;;;18.36;100.00;102388.41;5041795;28;20112;-80
2022/09/21 10:11:14;;;;;;;11.05;3.63;;;;;;;18.50;100.00;102389.09;5059160;28;20048;-79
2022/09/21 10:13:43;;;;;;;9.80;3.10;;;;;;;19.06;100.00;102383.13;5049197;28;20079;-80
2022/09/21 10:16:16;;;;;;;9.20;2.20;;;;;;;18.67;100.00;102384.81;5060687;28;20414;-80
2022/09/21 10:18:47;;;;;;;9.13;2.30;;;;;;;18.26;100.00;102384.66;5079307;28;20036;-80
2022/09/21 10:21:22;;;;;;;10.82;1.98;;;;;;;17.09;100.00;102389.03;5045245;28;20025;-80
2022/09/21 10:23:58;;;;;;;8.07;2.05;;;;;;;16.25;100.00;102375.44;5061951;28;20401;-80
2022/09/21 10:26:31;;;;;;;11.93;3.05;;;;;;;16.71;100.00;102391.13;5046658;28;20029;-80
2022/09/21 10:29:24;;;;;;;15.38;3.13;;;;;;;16.76;100.00;102385.22;5055748;28;20033;-79
2022/09/21 10:32:20;;;;;;;13.38;3.30;;;;;;;18.09;100.00;102375.06;5059256;28;20029;-80
2022/09/21 10:35:03;;;;;;;10.23;2.85;;;;;;;18.40;100.00;102379.81;5069649;28;20085;-80
2022/09/21 10:37:45;;;;;;;7.32;2.78;;;;;;;19.06;100.00;102379.50;5060658;28;20518;-80
2022/09/21 10:40:16;;;;;;;7.70;3.40;;;;;;;19.17;100.00;102382.16;5060653;28;20060;-79
2022/09/21 10:42:42;;;;;;;9.35;3.45;;;;;;;18.53;100.00;102367.50;5060111;28;20029;-80
2022/09/21 10:45:20;;;;;;;12.60;3.15;;;;;;;19.10;100.00;102375.41;5074662;28;20135;-80
2022/09/21 10:47:55;;;;;;;8.25;3.28;;;;;;;18.49;100.00;102373.44;5079484;28;20028;-80
2022/09/21 10:50:35;;;;;;;7.82;3.10;;;;;;;18.09;100.00;102363.13;5065272;28;20107;-80
2022/09/21 10:53:08;;;;;;;10.27;2.83;;;;;;;17.89;100.00;102365.72;5059732;28;20082;-80
2022/09/21 10:55:52;;;;;;;8.38;2.50;;;;;;;17.46;100.00;102355.47;5077369;28;20054;-80
2022/09/21 10:58:21;;;;;;;8.35;2.47;;;;;;;17.03;100.00;102364.63;5077126;28;20537;-80
2022/09/21 11:00:55;;;;;;;11.00;3.08;;;;;;;17.57;100.00;102365.66;5061750;28;20036;-80
2022/09/21 11:03:38;;;;;;;9.48;2.72;;;;;;;17.53;100.00;102361.38;5061715;28;20490;-80
2022/09/21 11:06:17;;;;;;;18.23;3.75;;;;;;;16.63;100.00;102365.09;5041288;28;20032;-79
2022/09/21 11:09:04;;;;;;;14.32;3.53;;;;;;;16.69;100.00;102364.56;5059284;28;20029;-80
2022/09/21 11:11:48;;;;;;;12.02;3.60;;;;;;;16.85;100.00;102362.34;5042882;28;20029;-80
2022/09/21 11:14:40;;;;;;;11.13;3.33;;;;;;;17.58;100.00;102362.75;5070640;28;20392;-80
2022/09/21 11:17:35;;;;;;;13.90;3.80;;;;;;;18.07;100.00;102362.34;5060700;28;20028;-80
2022/09/21 11:20:44;;;;;;;9.27;4.18;;;;;;;18.57;100.00;102365.31;5060196;28;20047;-80
2022/09/21 11:23:51;;;;;;;7.65;4.70;;;;;;;18.40;98.40;102361.28;5061876;28;20044;-81
2022/09/21 11:26:34;;;;;;;15.30;5.32;;;;;;;18.37;100.00;102364.34;5072122;28;20025;-80
2022/09/21 11:29:09;;;;;;;15.40;5.82;;;;;;;17.76;100.00;102365.84;5078213;28;20031;-80
2022/09/21 11:31:55;;;;;;;12.27;5.95;;;;;;;17.84;100.00;102356.88;5079546;28;20025;-80
2022/09/21 11:34:45;;;;;;;15.52;6.07;;;;;;;17.50;100.00;102361.66;5073611;28;20036;-81
2022/09/21 11:37:53;;;;;;;13.73;6.88;;;;;;;17.26;100.00;102355.25;5075728;28;20115;-80
2022/09/21 11:40:39;;;;;;;11.48;6.40;;;;;;;17.17;100.00;102360.72;5065179;28;20041;-79
2022/09/21 11:43:22;;;;;;;10.85;5.97;;;;;;;17.33;100.00;102358.44;5026203;28;20036;-79
2022/09/21 11:46:10;;;;;;;17.48;7.13;;;;;;;17.19;100.00;102347.63;5027161;28;20074;-78
2022/09/21 11:49:09;;;;;;;14.93;6.72;;;;;;;16.93;100.00;102347.03;5044585;28;20067;-78
2022/09/21 11:52:14;;;;;;;14.52;6.00;;;;;;;16.91;98.23;102341.63;5070138;28;20036;-78
2022/09/21 11:54:58;;;;;;;12.68;5.97;;;;;;;16.29;100.00;102343.78;5080158;28;20028;-79
2022/09/21 11:57:54;;;;;;;15.05;7.07;;;;;;;16.20;100.00;102344.53;5066470;28;20036;-79
2022/09/21 12:00:30;;;;;;;12.23;7.03;;;;;;;16.45;100.00;102339.81;5031860;28;20475;-79